sensor_id;sensor_type;location;lat;lon;timestamp;P1;durP1;ratioP1;P2;durP2;ratioP2
78858;SDS011;68210;52.032;4.634;2023-04-25T00:01:29;22.13;;;3.88;;
78858;SDS011;68210;52.032;4.634;2023-04-25T00:03:30;14.93;;;2.85;;
78858;SDS011;68210;52.032;4.634;2023-04-25T00:05:31;16.88;;;3.40;;
78858;SDS011;68210;52.032;4.634;2023-04-25T00:07:32;17.92;;;3.47;;
78858;SDS011;68210;52.032;4.634;2023-04-25T00:09:33;11.98;;;2.88;;
78858;SDS011;68210;52.032;4.634;2023-04-25T00:11:34;13.10;;;2.80;;
78858;SDS011;68210;52.032;4.634;2023-04-25T00:13:35;16.55;;;3.38;;
78858;SDS011;68210;52.032;4.634;2023-04-25T00:15:35;11.35;;;3.28;;
78858;SDS011;68210;52.032;4.634;2023-04-25T00:17:37;12.27;;;2.75;;
78858;SDS011;68210;52.032;4.634;2023-04-25T00:19:40;13.50;;;3.15;;
78858;SDS011;68210;52.032;4.634;2023-04-25T00:21:41;13.80;;;2.85;;
78858;SDS011;68210;52.032;4.634;2023-04-25T00:23:41;13.88;;;2.33;;
78858;SDS011;68210;52.032;4.634;2023-04-25T00:25:42;13.10;;;3.08;;
78858;SDS011;68210;52.032;4.634;2023-04-25T00:27:42;8.95;;;2.80;;
78858;SDS011;68210;52.032;4.634;2023-04-25T00:29:42;14.85;;;2.65;;
78858;SDS011;68210;52.032;4.634;2023-04-25T00:31:43;12.40;;;2.90;;
78858;SDS011;68210;52.032;4.634;2023-04-25T04:31:21;7.43;;;1.98;;
78858;SDS011;68210;52.032;4.634;2023-04-25T04:33:22;6.95;;;1.50;;
78858;SDS011;68210;52.032;4.634;2023-04-25T04:35:23;12.27;;;1.77;;
78858;SDS011;68210;52.032;4.634;2023-04-25T04:37:23;9.32;;;2.45;;
78858;SDS011;68210;52.032;4.634;2023-04-25T04:39:24;14.70;;;2.45;;
78858;SDS011;68210;52.032;4.634;2023-04-25T04:41:24;13.35;;;2.47;;
78858;SDS011;68210;52.032;4.634;2023-04-25T04:43:25;6.53;;;1.65;;
78858;SDS011;68210;52.032;4.634;2023-04-25T04:45:25;8.82;;;1.77;;
78858;SDS011;68210;52.032;4.634;2023-04-25T04:47:27;6.35;;;1.58;;
78858;SDS011;68210;52.032;4.634;2023-04-25T04:49:31;14.68;;;2.03;;
78858;SDS011;68210;52.032;4.634;2023-04-25T04:51:32;10.15;;;1.95;;
78858;SDS011;68210;52.032;4.634;2023-04-25T04:53:32;6.53;;;1.90;;
78858;SDS011;68210;52.032;4.634;2023-04-25T04:55:32;10.27;;;2.03;;
78858;SDS011;68210;52.032;4.634;2023-04-25T04:57:33;9.40;;;2.42;;
78858;SDS011;68210;52.032;4.634;2023-04-25T04:59:34;7.22;;;1.90;;
78858;SDS011;68210;52.032;4.634;2023-04-25T05:01:35;5.28;;;1.40;;
78858;SDS011;68210;52.032;4.634;2023-04-25T05:03:36;12.40;;;1.75;;
78858;SDS011;68210;52.032;4.634;2023-04-25T05:05:37;5.78;;;1.50;;
78858;SDS011;68210;52.032;4.634;2023-04-25T05:07:39;5.40;;;1.15;;
78858;SDS011;68210;52.032;4.634;2023-04-25T05:09:40;9.43;;;2.10;;
78858;SDS011;68210;52.032;4.634;2023-04-25T05:11:40;9.93;;;1.65;;
78858;SDS011;68210;52.032;4.634;2023-04-25T05:13:41;4.90;;;1.17;;
78858;SDS011;68210;52.032;4.634;2023-04-25T05:15:41;11.05;;;1.85;;
78858;SDS011;68210;52.032;4.634;2023-04-25T05:17:41;7.82;;;1.52;;
78858;SDS011;68210;52.032;4.634;2023-04-25T05:19:42;6.43;;;1.90;;
78858;SDS011;68210;52.032;4.634;2023-04-25T05:21:42;8.13;;;1.55;;
78858;SDS011;68210;52.032;4.634;2023-04-25T05:23:43;10.30;;;1.95;;
78858;SDS011;68210;52.032;4.634;2023-04-25T05:25:43;5.88;;;1.75;;
78858;SDS011;68210;52.032;4.634;2023-04-25T05:27:43;6.20;;;1.50;;
78858;SDS011;68210;52.032;4.634;2023-04-25T05:29:44;4.90;;;1.42;;
78858;SDS011;68210;52.032;4.634;2023-04-25T05:31:44;9.23;;;1.95;;
78858;SDS011;68210;52.032;4.634;2023-04-25T05:33:45;3.92;;;1.45;;
78858;SDS011;68210;52.032;4.634;2023-04-25T05:35:45;9.52;;;1.83;;
78858;SDS011;68210;52.032;4.634;2023-04-25T05:37:46;9.35;;;1.48;;
78858;SDS011;68210;52.032;4.634;2023-04-25T05:39:46;14.35;;;2.13;;
78858;SDS011;68210;52.032;4.634;2023-04-25T05:41:47;8.15;;;1.90;;
78858;SDS011;68210;52.032;4.634;2023-04-25T05:43:47;7.03;;;1.58;;
78858;SDS011;68210;52.032;4.634;2023-04-25T05:45:49;7.03;;;1.50;;
78858;SDS011;68210;52.032;4.634;2023-04-25T05:47:50;6.22;;;1.67;;
78858;SDS011;68210;52.032;4.634;2023-04-25T05:49:50;8.82;;;1.58;;
78858;SDS011;68210;52.032;4.634;2023-04-25T05:51:51;4.22;;;1.00;;
78858;SDS011;68210;52.032;4.634;2023-04-25T05:53:51;5.68;;;1.20;;
78858;SDS011;68210;52.032;4.634;2023-04-25T05:55:52;7.07;;;1.90;;
78858;SDS011;68210;52.032;4.634;2023-04-25T05:57:52;5.80;;;1.20;;
78858;SDS011;68210;52.032;4.634;2023-04-25T05:59:52;8.32;;;1.30;;
78858;SDS011;68210;52.032;4.634;2023-04-25T06:01:53;5.65;;;1.25;;
78858;SDS011;68210;52.032;4.634;2023-04-25T06:03:54;4.78;;;1.00;;
78858;SDS011;68210;52.032;4.634;2023-04-25T06:05:55;8.90;;;1.40;;
78858;SDS011;68210;52.032;4.634;2023-04-25T06:07:55;4.03;;;1.05;;
78858;SDS011;68210;52.032;4.634;2023-04-25T06:09:57;4.78;;;1.15;;
78858;SDS011;68210;52.032;4.634;2023-04-25T06:11:57;4.97;;;0.90;;
78858;SDS011;68210;52.032;4.634;2023-04-25T06:13:58;4.40;;;0.90;;
78858;SDS011;68210;52.032;4.634;2023-04-25T06:15:58;2.22;;;0.90;;
78858;SDS011;68210;52.032;4.634;2023-04-25T06:17:58;3.08;;;1.00;;
78858;SDS011;68210;52.032;4.634;2023-04-25T06:20:00;3.03;;;1.13;;
78858;SDS011;68210;52.032;4.634;2023-04-25T06:22:01;5.15;;;1.25;;
78858;SDS011;68210;52.032;4.634;2023-04-25T06:24:02;2.00;;;0.75;;
78858;SDS011;68210;52.032;4.634;2023-04-25T06:26:03;2.90;;;0.95;;
78858;SDS011;68210;52.032;4.634;2023-04-25T06:28:03;6.47;;;1.85;;
78858;SDS011;68210;52.032;4.634;2023-04-25T06:30:04;3.25;;;1.05;;
78858;SDS011;68210;52.032;4.634;2023-04-25T06:32:05;4.13;;;1.00;;
78858;SDS011;68210;52.032;4.634;2023-04-25T06:34:05;7.05;;;1.23;;
78858;SDS011;68210;52.032;4.634;2023-04-25T06:36:06;2.75;;;1.00;;
78858;SDS011;68210;52.032;4.634;2023-04-25T06:38:06;3.90;;;0.82;;
78858;SDS011;68210;52.032;4.634;2023-04-25T06:40:07;4.70;;;1.20;;
78858;SDS011;68210;52.032;4.634;2023-04-25T06:42:08;5.50;;;1.33;;
78858;SDS011;68210;52.032;4.634;2023-04-25T06:44:08;5.35;;;1.15;;
78858;SDS011;68210;52.032;4.634;2023-04-25T06:46:09;4.30;;;1.00;;
78858;SDS011;68210;52.032;4.634;2023-04-25T06:48:09;7.47;;;1.38;;
78858;SDS011;68210;52.032;4.634;2023-04-25T06:50:09;5.85;;;1.88;;
78858;SDS011;68210;52.032;4.634;2023-04-25T06:52:10;3.70;;;0.90;;
78858;SDS011;68210;52.032;4.634;2023-04-25T06:54:11;4.32;;;1.00;;
78858;SDS011;68210;52.032;4.634;2023-04-25T06:56:12;3.67;;;1.25;;
78858;SDS011;68210;52.032;4.634;2023-04-25T06:58:12;3.28;;;1.08;;
78858;SDS011;68210;52.032;4.634;2023-04-25T07:00:13;3.55;;;1.15;;
78858;SDS011;68210;52.032;4.634;2023-04-25T07:02:13;7.18;;;1.30;;
78858;SDS011;68210;52.032;4.634;2023-04-25T07:04:14;4.38;;;1.30;;
78858;SDS011;68210;52.032;4.634;2023-04-25T07:06:14;2.47;;;1.33;;
78858;SDS011;68210;52.032;4.634;2023-04-25T07:08:15;4.20;;;1.10;;
78858;SDS011;68210;52.032;4.634;2023-04-25T07:10:15;4.72;;;1.02;;
78858;SDS011;68210;52.032;4.634;2023-04-25T07:12:16;8.00;;;1.30;;
78858;SDS011;68210;52.032;4.634;2023-04-25T07:14:16;4.80;;;1.23;;
78858;SDS011;68210;52.032;4.634;2023-04-25T07:16:16;5.68;;;1.20;;
78858;SDS011;68210;52.032;4.634;2023-04-25T07:18:17;5.85;;;1.10;;
78858;SDS011;68210;52.032;4.634;2023-04-25T07:20:17;9.23;;;1.27;;
78858;SDS011;68210;52.032;4.634;2023-04-25T07:22:18;3.00;;;1.00;;
78858;SDS011;68210;52.032;4.634;2023-04-25T07:24:18;5.00;;;1.58;;
78858;SDS011;68210;52.032;4.634;2023-04-25T07:26:19;5.80;;;0.95;;
78858;SDS011;68210;52.032;4.634;2023-04-25T07:28:19;7.32;;;1.23;;
78858;SDS011;68210;52.032;4.634;2023-04-25T07:30:20;9.15;;;1.30;;
78858;SDS011;68210;52.032;4.634;2023-04-25T07:32:20;4.43;;;1.10;;
78858;SDS011;68210;52.032;4.634;2023-04-25T07:34:20;7.40;;;1.55;;
78858;SDS011;68210;52.032;4.634;2023-04-25T07:36:21;14.07;;;1.23;;
78858;SDS011;68210;52.032;4.634;2023-04-25T07:38:21;5.63;;;1.00;;
78858;SDS011;68210;52.032;4.634;2023-04-25T07:40:22;9.32;;;1.85;;
78858;SDS011;68210;52.032;4.634;2023-04-25T07:42:22;7.38;;;1.40;;
78858;SDS011;68210;52.032;4.634;2023-04-25T07:44:23;4.68;;;1.20;;
78858;SDS011;68210;52.032;4.634;2023-04-25T07:46:23;4.95;;;1.30;;
78858;SDS011;68210;52.032;4.634;2023-04-25T07:48:23;7.03;;;1.17;;
78858;SDS011;68210;52.032;4.634;2023-04-25T07:50:24;11.63;;;2.05;;
78858;SDS011;68210;52.032;4.634;2023-04-25T07:52:24;4.95;;;1.27;;
78858;SDS011;68210;52.032;4.634;2023-04-25T07:54:25;6.10;;;1.25;;
78858;SDS011;68210;52.032;4.634;2023-04-25T07:56:25;3.90;;;1.50;;
78858;SDS011;68210;52.032;4.634;2023-04-25T07:58:26;8.23;;;2.45;;
78858;SDS011;68210;52.032;4.634;2023-04-25T08:00:26;7.65;;;1.25;;
78858;SDS011;68210;52.032;4.634;2023-04-25T08:02:27;4.72;;;0.90;;
78858;SDS011;68210;52.032;4.634;2023-04-25T08:04:28;5.32;;;1.10;;
78858;SDS011;68210;52.032;4.634;2023-04-25T08:06:28;5.28;;;1.10;;
78858;SDS011;68210;52.032;4.634;2023-04-25T08:08:29;6.63;;;1.38;;
78858;SDS011;68210;52.032;4.634;2023-04-25T08:10:29;8.52;;;1.77;;
78858;SDS011;68210;52.032;4.634;2023-04-25T08:12:30;4.07;;;0.77;;
78858;SDS011;68210;52.032;4.634;2023-04-25T08:14:30;7.68;;;1.13;;
78858;SDS011;68210;52.032;4.634;2023-04-25T08:16:35;5.13;;;1.08;;
78858;SDS011;68210;52.032;4.634;2023-04-25T08:18:35;4.63;;;1.30;;
78858;SDS011;68210;52.032;4.634;2023-04-25T08:20:36;8.30;;;1.38;;
78858;SDS011;68210;52.032;4.634;2023-04-25T08:22:36;5.53;;;1.00;;
78858;SDS011;68210;52.032;4.634;2023-04-25T08:24:37;4.05;;;1.10;;
78858;SDS011;68210;52.032;4.634;2023-04-25T08:26:37;9.35;;;1.35;;
78858;SDS011;68210;52.032;4.634;2023-04-25T08:28:39;6.40;;;1.17;;
78858;SDS011;68210;52.032;4.634;2023-04-25T08:30:39;8.80;;;1.00;;
78858;SDS011;68210;52.032;4.634;2023-04-25T08:32:40;5.60;;;1.40;;
78858;SDS011;68210;52.032;4.634;2023-04-25T08:34:40;7.82;;;1.20;;
78858;SDS011;68210;52.032;4.634;2023-04-25T08:36:42;4.82;;;0.80;;
78858;SDS011;68210;52.032;4.634;2023-04-25T08:38:42;5.28;;;0.98;;
78858;SDS011;68210;52.032;4.634;2023-04-25T08:40:43;5.25;;;1.42;;
78858;SDS011;68210;52.032;4.634;2023-04-25T08:42:44;5.32;;;1.30;;
78858;SDS011;68210;52.032;4.634;2023-04-25T08:44:45;6.25;;;1.30;;
78858;SDS011;68210;52.032;4.634;2023-04-25T08:46:48;3.95;;;0.80;;
78858;SDS011;68210;52.032;4.634;2023-04-25T08:48:49;6.93;;;1.85;;
78858;SDS011;68210;52.032;4.634;2023-04-25T08:50:55;8.00;;;1.42;;
78858;SDS011;68210;52.032;4.634;2023-04-25T08:52:56;4.97;;;1.08;;
78858;SDS011;68210;52.032;4.634;2023-04-25T08:55:01;5.85;;;1.08;;
78858;SDS011;68210;52.032;4.634;2023-04-25T08:57:03;2.50;;;0.70;;
78858;SDS011;68210;52.032;4.634;2023-04-25T08:59:04;5.13;;;1.33;;
78858;SDS011;68210;52.032;4.634;2023-04-25T09:01:04;7.43;;;1.00;;
78858;SDS011;68210;52.032;4.634;2023-04-25T09:03:05;4.63;;;0.70;;
78858;SDS011;68210;52.032;4.634;2023-04-25T09:05:06;3.08;;;0.80;;
78858;SDS011;68210;52.032;4.634;2023-04-25T09:07:06;3.10;;;0.85;;
78858;SDS011;68210;52.032;4.634;2023-04-25T09:09:08;3.00;;;0.73;;
78858;SDS011;68210;52.032;4.634;2023-04-25T09:11:08;4.40;;;0.82;;
78858;SDS011;68210;52.032;4.634;2023-04-25T09:13:13;6.00;;;1.13;;
78858;SDS011;68210;52.032;4.634;2023-04-25T09:15:17;5.35;;;0.98;;
78858;SDS011;68210;52.032;4.634;2023-04-25T09:17:17;6.95;;;0.88;;
78858;SDS011;68210;52.032;4.634;2023-04-25T09:19:25;6.80;;;1.00;;
78858;SDS011;68210;52.032;4.634;2023-04-25T09:21:26;4.13;;;1.10;;
78858;SDS011;68210;52.032;4.634;2023-04-25T09:23:27;3.35;;;1.10;;
78858;SDS011;68210;52.032;4.634;2023-04-25T09:25:28;4.70;;;0.95;;
78858;SDS011;68210;52.032;4.634;2023-04-25T09:27:34;6.28;;;1.05;;
78858;SDS011;68210;52.032;4.634;2023-04-25T09:29:35;7.28;;;1.27;;
78858;SDS011;68210;52.032;4.634;2023-04-25T09:33:40;6.80;;;1.17;;
78858;SDS011;68210;52.032;4.634;2023-04-25T09:35:42;3.92;;;1.00;;
78858;SDS011;68210;52.032;4.634;2023-04-25T09:37:43;3.40;;;1.00;;
78858;SDS011;68210;52.032;4.634;2023-04-25T09:39:46;4.97;;;1.02;;
78858;SDS011;68210;52.032;4.634;2023-04-25T09:41:47;4.78;;;1.00;;
78858;SDS011;68210;52.032;4.634;2023-04-25T09:43:56;2.50;;;1.05;;
78858;SDS011;68210;52.032;4.634;2023-04-25T09:45:58;6.10;;;0.98;;
78858;SDS011;68210;52.032;4.634;2023-04-25T09:48:03;2.58;;;0.60;;
78858;SDS011;68210;52.032;4.634;2023-04-25T09:50:13;2.38;;;0.60;;
78858;SDS011;68210;52.032;4.634;2023-04-25T09:52:16;1.92;;;1.00;;
78858;SDS011;68210;52.032;4.634;2023-04-25T09:54:20;3.20;;;0.70;;
78858;SDS011;68210;52.032;4.634;2023-04-25T09:56:20;3.88;;;0.90;;
78858;SDS011;68210;52.032;4.634;2023-04-25T09:58:22;5.03;;;0.90;;
78858;SDS011;68210;52.032;4.634;2023-04-25T10:00:24;4.13;;;1.23;;
78858;SDS011;68210;52.032;4.634;2023-04-25T10:02:26;4.50;;;1.23;;
78858;SDS011;68210;52.032;4.634;2023-04-25T10:04:27;6.97;;;1.58;;
78858;SDS011;68210;52.032;4.634;2023-04-25T10:06:33;5.80;;;1.20;;
78858;SDS011;68210;52.032;4.634;2023-04-25T10:08:37;4.57;;;0.95;;
78858;SDS011;68210;52.032;4.634;2023-04-25T10:10:42;6.53;;;0.95;;
78858;SDS011;68210;52.032;4.634;2023-04-25T10:12:43;5.93;;;1.23;;
78858;SDS011;68210;52.032;4.634;2023-04-25T10:14:44;7.50;;;0.93;;
78858;SDS011;68210;52.032;4.634;2023-04-25T10:16:46;5.00;;;1.05;;
78858;SDS011;68210;52.032;4.634;2023-04-25T10:18:47;3.78;;;1.00;;
78858;SDS011;68210;52.032;4.634;2023-04-25T10:20:48;7.00;;;1.10;;
78858;SDS011;68210;52.032;4.634;2023-04-25T10:22:48;4.78;;;1.05;;
78858;SDS011;68210;52.032;4.634;2023-04-25T10:24:54;4.50;;;1.10;;
78858;SDS011;68210;52.032;4.634;2023-04-25T10:26:56;9.35;;;1.63;;
78858;SDS011;68210;52.032;4.634;2023-04-25T10:28:58;7.90;;;1.58;;
78858;SDS011;68210;52.032;4.634;2023-04-25T10:31:01;5.78;;;1.02;;
78858;SDS011;68210;52.032;4.634;2023-04-25T10:33:03;4.80;;;0.82;;
78858;SDS011;68210;52.032;4.634;2023-04-25T10:35:29;9.05;;;1.15;;
78858;SDS011;68210;52.032;4.634;2023-04-25T10:37:33;4.78;;;0.93;;
78858;SDS011;68210;52.032;4.634;2023-04-25T10:39:38;4.65;;;0.98;;
78858;SDS011;68210;52.032;4.634;2023-04-25T10:41:45;3.75;;;1.00;;
78858;SDS011;68210;52.032;4.634;2023-04-25T10:43:58;4.05;;;0.95;;
78858;SDS011;68210;52.032;4.634;2023-04-25T10:46:01;5.88;;;1.17;;
78858;SDS011;68210;52.032;4.634;2023-04-25T10:48:01;2.22;;;0.77;;
78858;SDS011;68210;52.032;4.634;2023-04-25T10:50:05;4.25;;;0.80;;
78858;SDS011;68210;52.032;4.634;2023-04-25T10:52:11;5.72;;;1.15;;
78858;SDS011;68210;52.032;4.634;2023-04-25T10:54:23;5.40;;;0.82;;
78858;SDS011;68210;52.032;4.634;2023-04-25T10:56:27;6.20;;;0.88;;
78858;SDS011;68210;52.032;4.634;2023-04-25T10:58:29;3.65;;;0.80;;
78858;SDS011;68210;52.032;4.634;2023-04-25T11:00:29;5.45;;;1.00;;
78858;SDS011;68210;52.032;4.634;2023-04-25T11:02:31;4.43;;;0.90;;
78858;SDS011;68210;52.032;4.634;2023-04-25T11:04:32;6.20;;;1.08;;
78858;SDS011;68210;52.032;4.634;2023-04-25T11:06:43;4.95;;;1.10;;
78858;SDS011;68210;52.032;4.634;2023-04-25T11:08:54;3.38;;;0.80;;
78858;SDS011;68210;52.032;4.634;2023-04-25T11:10:55;4.25;;;0.90;;
78858;SDS011;68210;52.032;4.634;2023-04-25T11:12:56;8.13;;;1.30;;
78858;SDS011;68210;52.032;4.634;2023-04-25T11:15:03;4.15;;;1.23;;
78858;SDS011;68210;52.032;4.634;2023-04-25T11:17:05;8.70;;;1.80;;
78858;SDS011;68210;52.032;4.634;2023-04-25T11:19:06;2.38;;;0.73;;
78858;SDS011;68210;52.032;4.634;2023-04-25T11:21:06;5.63;;;1.10;;
78858;SDS011;68210;52.032;4.634;2023-04-25T11:23:06;5.70;;;1.10;;
78858;SDS011;68210;52.032;4.634;2023-04-25T11:25:07;5.32;;;1.10;;
78858;SDS011;68210;52.032;4.634;2023-04-25T11:27:12;7.15;;;0.93;;
78858;SDS011;68210;52.032;4.634;2023-04-25T11:29:12;4.03;;;1.13;;
78858;SDS011;68210;52.032;4.634;2023-04-25T11:31:12;4.07;;;0.90;;
78858;SDS011;68210;52.032;4.634;2023-04-25T11:33:13;3.78;;;1.27;;
78858;SDS011;68210;52.032;4.634;2023-04-25T11:35:14;7.13;;;1.45;;
78858;SDS011;68210;52.032;4.634;2023-04-25T11:37:15;2.22;;;1.00;;
78858;SDS011;68210;52.032;4.634;2023-04-25T11:39:15;3.45;;;1.00;;
78858;SDS011;68210;52.032;4.634;2023-04-25T11:41:16;3.67;;;0.70;;
78858;SDS011;68210;52.032;4.634;2023-04-25T11:43:17;5.50;;;1.02;;
78858;SDS011;68210;52.032;4.634;2023-04-25T11:45:17;2.58;;;1.00;;
78858;SDS011;68210;52.032;4.634;2023-04-25T11:47:18;7.93;;;1.40;;
78858;SDS011;68210;52.032;4.634;2023-04-25T11:49:19;2.55;;;1.10;;
78858;SDS011;68210;52.032;4.634;2023-04-25T11:51:19;5.93;;;1.13;;
78858;SDS011;68210;52.032;4.634;2023-04-25T11:53:20;8.25;;;1.23;;
78858;SDS011;68210;52.032;4.634;2023-04-25T11:55:20;3.33;;;0.95;;
78858;SDS011;68210;52.032;4.634;2023-04-25T11:57:20;6.20;;;1.00;;
78858;SDS011;68210;52.032;4.634;2023-04-25T11:59:24;2.78;;;0.90;;
78858;SDS011;68210;52.032;4.634;2023-04-25T12:01:28;13.55;;;1.42;;
78858;SDS011;68210;52.032;4.634;2023-04-25T12:03:32;3.83;;;0.80;;
78858;SDS011;68210;52.032;4.634;2023-04-25T12:05:33;4.85;;;0.95;;
78858;SDS011;68210;52.032;4.634;2023-04-25T12:07:34;3.08;;;1.10;;
78858;SDS011;68210;52.032;4.634;2023-04-25T12:09:34;4.65;;;0.90;;
78858;SDS011;68210;52.032;4.634;2023-04-25T12:11:41;4.18;;;0.90;;
78858;SDS011;68210;52.032;4.634;2023-04-25T12:13:43;6.75;;;1.70;;
78858;SDS011;68210;52.032;4.634;2023-04-25T12:15:44;4.03;;;0.90;;
78858;SDS011;68210;52.032;4.634;2023-04-25T12:17:47;1.98;;;0.80;;
78858;SDS011;68210;52.032;4.634;2023-04-25T12:19:48;5.82;;;0.98;;
78858;SDS011;68210;52.032;4.634;2023-04-25T12:21:49;3.65;;;1.02;;
78858;SDS011;68210;52.032;4.634;2023-04-25T12:23:50;5.10;;;0.80;;
78858;SDS011;68210;52.032;4.634;2023-04-25T12:25:50;3.33;;;0.75;;
78858;SDS011;68210;52.032;4.634;2023-04-25T12:27:51;3.20;;;0.75;;
78858;SDS011;68210;52.032;4.634;2023-04-25T12:29:53;3.20;;;0.63;;
78858;SDS011;68210;52.032;4.634;2023-04-25T12:31:55;2.72;;;0.60;;
78858;SDS011;68210;52.032;4.634;2023-04-25T12:33:58;4.05;;;0.85;;
78858;SDS011;68210;52.032;4.634;2023-04-25T12:35:58;5.13;;;1.10;;
78858;SDS011;68210;52.032;4.634;2023-04-25T12:38:00;2.72;;;0.80;;
78858;SDS011;68210;52.032;4.634;2023-04-25T12:40:00;3.72;;;1.25;;
78858;SDS011;68210;52.032;4.634;2023-04-25T12:42:01;3.38;;;1.15;;
78858;SDS011;68210;52.032;4.634;2023-04-25T12:44:02;5.90;;;0.90;;
78858;SDS011;68210;52.032;4.634;2023-04-25T12:46:02;14.32;;;1.80;;
78858;SDS011;68210;52.032;4.634;2023-04-25T12:48:03;3.83;;;1.13;;
78858;SDS011;68210;52.032;4.634;2023-04-25T12:50:03;3.00;;;0.88;;
78858;SDS011;68210;52.032;4.634;2023-04-25T12:52:04;3.50;;;0.90;;
78858;SDS011;68210;52.032;4.634;2023-04-25T12:54:05;5.65;;;1.13;;
78858;SDS011;68210;52.032;4.634;2023-04-25T12:56:07;5.97;;;1.00;;
78858;SDS011;68210;52.032;4.634;2023-04-25T12:58:08;8.75;;;1.35;;
78858;SDS011;68210;52.032;4.634;2023-04-25T13:00:09;6.20;;;1.23;;
78858;SDS011;68210;52.032;4.634;2023-04-25T13:02:10;5.95;;;1.05;;
78858;SDS011;68210;52.032;4.634;2023-04-25T13:04:11;5.40;;;0.90;;
78858;SDS011;68210;52.032;4.634;2023-04-25T13:06:11;15.30;;;1.33;;
78858;SDS011;68210;52.032;4.634;2023-04-25T13:08:12;3.72;;;0.80;;
78858;SDS011;68210;52.032;4.634;2023-04-25T13:10:13;2.85;;;0.90;;
78858;SDS011;68210;52.032;4.634;2023-04-25T13:12:13;5.03;;;1.30;;
78858;SDS011;68210;52.032;4.634;2023-04-25T13:14:14;3.85;;;1.02;;
78858;SDS011;68210;52.032;4.634;2023-04-25T13:16:15;4.07;;;0.85;;
78858;SDS011;68210;52.032;4.634;2023-04-25T13:18:15;5.63;;;1.00;;
78858;SDS011;68210;52.032;4.634;2023-04-25T13:20:15;7.55;;;1.15;;
78858;SDS011;68210;52.032;4.634;2023-04-25T13:22:16;2.58;;;0.70;;
78858;SDS011;68210;52.032;4.634;2023-04-25T13:24:19;5.63;;;1.00;;
78858;SDS011;68210;52.032;4.634;2023-04-25T13:26:34;6.47;;;1.33;;
78858;SDS011;68210;52.032;4.634;2023-04-25T13:28:35;8.10;;;1.35;;
78858;SDS011;68210;52.032;4.634;2023-04-25T13:30:36;3.15;;;0.85;;
78858;SDS011;68210;52.032;4.634;2023-04-25T13:32:37;4.85;;;1.13;;
78858;SDS011;68210;52.032;4.634;2023-04-25T13:34:37;4.40;;;1.20;;
78858;SDS011;68210;52.032;4.634;2023-04-25T13:36:37;4.35;;;1.30;;
78858;SDS011;68210;52.032;4.634;2023-04-25T13:38:38;7.93;;;1.20;;
78858;SDS011;68210;52.032;4.634;2023-04-25T13:40:39;6.28;;;1.02;;
78858;SDS011;68210;52.032;4.634;2023-04-25T13:42:39;6.78;;;1.38;;
78858;SDS011;68210;52.032;4.634;2023-04-25T13:44:40;4.88;;;1.10;;
78858;SDS011;68210;52.032;4.634;2023-04-25T13:46:40;5.25;;;1.35;;
78858;SDS011;68210;52.032;4.634;2023-04-25T13:48:41;7.03;;;1.45;;
78858;SDS011;68210;52.032;4.634;2023-04-25T13:50:46;6.90;;;1.10;;
78858;SDS011;68210;52.032;4.634;2023-04-25T13:52:46;5.80;;;1.65;;
78858;SDS011;68210;52.032;4.634;2023-04-25T13:54:47;5.20;;;1.05;;
78858;SDS011;68210;52.032;4.634;2023-04-25T13:56:47;3.90;;;1.05;;
78858;SDS011;68210;52.032;4.634;2023-04-25T13:58:49;9.32;;;1.58;;
78858;SDS011;68210;52.032;4.634;2023-04-25T14:00:50;3.55;;;1.08;;
78858;SDS011;68210;52.032;4.634;2023-04-25T14:02:50;3.42;;;1.08;;
78858;SDS011;68210;52.032;4.634;2023-04-25T14:04:51;6.07;;;2.45;;
78858;SDS011;68210;52.032;4.634;2023-04-25T14:06:51;5.93;;;1.25;;
78858;SDS011;68210;52.032;4.634;2023-04-25T14:08:51;5.53;;;1.00;;
78858;SDS011;68210;52.032;4.634;2023-04-25T14:10:52;7.53;;;1.35;;
78858;SDS011;68210;52.032;4.634;2023-04-25T14:12:52;4.50;;;1.20;;
78858;SDS011;68210;52.032;4.634;2023-04-25T14:14:53;4.40;;;1.13;;
78858;SDS011;68210;52.032;4.634;2023-04-25T14:16:53;5.60;;;1.40;;
78858;SDS011;68210;52.032;4.634;2023-04-25T14:18:54;4.05;;;1.02;;
78858;SDS011;68210;52.032;4.634;2023-04-25T14:20:54;4.70;;;1.17;;
78858;SDS011;68210;52.032;4.634;2023-04-25T14:22:55;4.82;;;1.10;;
78858;SDS011;68210;52.032;4.634;2023-04-25T14:24:57;4.60;;;1.00;;
78858;SDS011;68210;52.032;4.634;2023-04-25T14:26:58;3.25;;;0.93;;
78858;SDS011;68210;52.032;4.634;2023-04-25T14:28:58;3.67;;;0.93;;
78858;SDS011;68210;52.032;4.634;2023-04-25T14:30:58;6.90;;;1.20;;
78858;SDS011;68210;52.032;4.634;2023-04-25T14:33:00;5.55;;;1.05;;
78858;SDS011;68210;52.032;4.634;2023-04-25T14:35:00;5.75;;;1.05;;
78858;SDS011;68210;52.032;4.634;2023-04-25T14:37:01;3.28;;;0.98;;
78858;SDS011;68210;52.032;4.634;2023-04-25T14:39:01;2.53;;;0.80;;
78858;SDS011;68210;52.032;4.634;2023-04-25T14:41:03;3.22;;;1.00;;
78858;SDS011;68210;52.032;4.634;2023-04-25T14:43:03;3.75;;;0.90;;
78858;SDS011;68210;52.032;4.634;2023-04-25T14:45:05;2.80;;;0.82;;
78858;SDS011;68210;52.032;4.634;2023-04-25T14:47:07;4.47;;;1.35;;
78858;SDS011;68210;52.032;4.634;2023-04-25T14:49:07;7.40;;;1.85;;
78858;SDS011;68210;52.032;4.634;2023-04-25T14:51:08;7.13;;;1.13;;
78858;SDS011;68210;52.032;4.634;2023-04-25T14:53:08;4.95;;;1.20;;
78858;SDS011;68210;52.032;4.634;2023-04-25T14:55:08;4.10;;;1.30;;
78858;SDS011;68210;52.032;4.634;2023-04-25T14:57:09;6.38;;;1.15;;
78858;SDS011;68210;52.032;4.634;2023-04-25T14:59:09;5.20;;;1.02;;
78858;SDS011;68210;52.032;4.634;2023-04-25T15:01:10;1.38;;;0.73;;
78858;SDS011;68210;52.032;4.634;2023-04-25T15:03:12;3.35;;;0.77;;
78858;SDS011;68210;52.032;4.634;2023-04-25T15:05:13;5.43;;;1.30;;
78858;SDS011;68210;52.032;4.634;2023-04-25T15:07:13;3.25;;;1.02;;
78858;SDS011;68210;52.032;4.634;2023-04-25T15:09:15;6.70;;;1.20;;
78858;SDS011;68210;52.032;4.634;2023-04-25T15:11:16;6.10;;;1.60;;
78858;SDS011;68210;52.032;4.634;2023-04-25T15:13:17;6.93;;;1.00;;
78858;SDS011;68210;52.032;4.634;2023-04-25T15:15:19;6.00;;;1.60;;
78858;SDS011;68210;52.032;4.634;2023-04-25T15:17:19;3.08;;;0.80;;
78858;SDS011;68210;52.032;4.634;2023-04-25T15:19:20;4.05;;;1.35;;
78858;SDS011;68210;52.032;4.634;2023-04-25T15:21:20;5.63;;;0.90;;
78858;SDS011;68210;52.032;4.634;2023-04-25T15:23:21;8.77;;;1.13;;
78858;SDS011;68210;52.032;4.634;2023-04-25T15:25:22;4.03;;;1.35;;
78858;SDS011;68210;52.032;4.634;2023-04-25T15:27:22;5.88;;;1.13;;
78858;SDS011;68210;52.032;4.634;2023-04-25T15:29:23;3.60;;;1.20;;
78858;SDS011;68210;52.032;4.634;2023-04-25T15:31:23;5.07;;;1.15;;
78858;SDS011;68210;52.032;4.634;2023-04-25T15:33:23;5.82;;;1.00;;
78858;SDS011;68210;52.032;4.634;2023-04-25T15:35:24;4.57;;;1.35;;
78858;SDS011;68210;52.032;4.634;2023-04-25T15:37:24;3.38;;;1.20;;
78858;SDS011;68210;52.032;4.634;2023-04-25T15:39:25;3.65;;;1.15;;
78858;SDS011;68210;52.032;4.634;2023-04-25T15:41:25;3.97;;;1.23;;
78858;SDS011;68210;52.032;4.634;2023-04-25T15:43:26;7.88;;;1.10;;
78858;SDS011;68210;52.032;4.634;2023-04-25T15:45:26;3.63;;;0.93;;
78858;SDS011;68210;52.032;4.634;2023-04-25T15:47:27;3.92;;;1.05;;
78858;SDS011;68210;52.032;4.634;2023-04-25T15:49:27;2.95;;;0.93;;
78858;SDS011;68210;52.032;4.634;2023-04-25T15:51:28;3.10;;;0.90;;
78858;SDS011;68210;52.032;4.634;2023-04-25T15:53:28;4.55;;;1.13;;
78858;SDS011;68210;52.032;4.634;2023-04-25T15:55:28;3.03;;;1.00;;
78858;SDS011;68210;52.032;4.634;2023-04-25T15:57:29;9.15;;;3.13;;
78858;SDS011;68210;52.032;4.634;2023-04-25T15:59:33;20.83;;;6.38;;
78858;SDS011;68210;52.032;4.634;2023-04-25T16:01:33;22.80;;;6.57;;
78858;SDS011;68210;52.032;4.634;2023-04-25T16:03:33;8.45;;;2.92;;
78858;SDS011;68210;52.032;4.634;2023-04-25T16:05:34;6.05;;;1.98;;
78858;SDS011;68210;52.032;4.634;2023-04-25T16:07:34;3.08;;;0.93;;
78858;SDS011;68210;52.032;4.634;2023-04-25T16:09:35;4.38;;;1.15;;